Time;durP1;ratioP1;P1;durP2;ratioP2;P2;SDS_P1;SDS_P2;PMS_P1;PMS_P2;Temp;Humidity;BMP_temperature;BMP_pressure;BME280_temperature;BME280_humidity;BME280_pressure;Samples;Min_cycle;Max_cycle;Signal;HPM_P1;HPM_P2
2021/12/01 00:02:02;;;;;;;;;43.67;37.00;;;;;2.76;71.83;99680.09;5035324;28;45500;-74
2021/12/01 00:04:28;;;;;;;;;40.33;37.00;;;;;2.74;71.84;99666.19;5034984;28;45392;-73
2021/12/01 00:06:53;;;;;;;;;46.00;38.67;;;;;2.71;71.81;99667.06;5034310;28;45539;-73
2021/12/01 00:09:19;;;;;;;;;45.67;38.00;;;;;2.70;71.67;99667.94;5048837;28;48135;-73
2021/12/01 00:11:44;;;;;;;;;43.00;37.67;;;;;2.68;71.92;99663.63;5035115;28;45487;-73
2021/12/01 00:14:10;;;;;;;;;31.33;30.00;;;;;2.64;71.76;99667.06;5050192;28;45651;-73
2021/12/01 00:16:35;;;;;;;;;34.67;31.67;;;;;2.59;71.67;99664.47;5034952;28;45339;-73
2021/12/01 00:19:01;;;;;;;;;45.33;38.67;;;;;2.56;71.69;99656.66;5034288;28;45413;-73
2021/12/01 00:21:26;;;;;;;;;42.33;38.67;;;;;2.53;71.79;99660.97;5035100;28;45277;-73
2021/12/01 00:23:52;;;;;;;;;41.00;35.33;;;;;2.51;71.97;99662.75;5034567;28;45246;-73
2021/12/01 00:26:17;;;;;;;;;44.33;38.67;;;;;2.46;71.87;99649.72;5032773;28;45367;-73
2021/12/01 00:28:42;;;;;;;;;43.33;39.33;;;;;2.43;72.12;99660.97;5033767;28;45465;-73
2021/12/01 00:31:08;;;;;;;;;40.33;34.33;;;;;2.38;71.96;99656.63;5027185;28;46020;-73
2021/12/01 00:33:34;;;;;;;;;42.00;38.33;;;;;2.37;72.25;99660.97;5034542;28;45629;-74
2021/12/01 00:35:59;;;;;;;;;40.33;34.67;;;;;2.36;72.20;99663.56;5034436;28;45526;-73
2021/12/01 00:38:26;;;;;;;;;39.67;36.33;;;;;2.34;72.32;99653.19;5034037;28;46275;-73
2021/12/01 00:40:52;;;;;;;;;45.33;36.00;;;;;2.33;72.17;99648.84;5033175;28;45404;-73
2021/12/01 00:43:18;;;;;;;;;44.00;38.67;;;;;2.32;72.61;99656.66;5034336;28;45349;-73
2021/12/01 00:45:51;;;;;;;;;38.67;34.67;;;;;2.31;72.53;99647.09;5034727;28;45531;-73
2021/12/01 00:48:18;;;;;;;;;41.00;37.67;;;;;2.28;72.49;99634.94;5034280;28;46042;-73
2021/12/01 00:50:44;;;;;;;;;30.67;27.00;;;;;2.26;72.89;99628.88;5034190;28;45498;-73
2021/12/01 00:53:11;;;;;;;;;40.33;36.00;;;;;2.26;72.73;99630.59;5033670;28;45380;-73
2021/12/01 00:55:37;;;;;;;;;36.33;34.33;;;;;2.25;73.10;99628.88;5030039;28;45548;-73
2021/12/01 00:58:03;;;;;;;;;37.33;33.00;;;;;2.23;73.26;99621.06;5033920;28;46185;-72
2021/12/01 01:00:30;;;;;;;;;43.00;35.00;;;;;2.24;73.25;99615.00;5064490;28;45662;-73
2021/12/01 01:02:57;;;;;;;;;38.00;34.00;;;;;2.25;73.09;99605.47;5033936;28;45469;-72
2021/12/01 01:05:23;;;;;;;;;35.00;31.00;;;;;2.26;73.45;99607.19;5034300;28;45428;-73
2021/12/01 01:07:49;;;;;;;;;40.33;37.00;;;;;2.27;73.15;99606.34;5033539;28;46618;-73
2021/12/01 01:10:30;;;;;;;;;36.67;33.33;;;;;2.28;73.53;99600.25;5034085;28;45389;-73
2021/12/01 01:18:34;;;;;;;;;33.00;29.67;;;;;2.31;73.40;99582.94;5033533;28;45914;-73
2021/12/01 01:21:00;;;;;;;;;35.00;29.00;;;;;2.32;73.18;99578.59;5033902;28;45388;-74
2021/12/01 01:23:29;;;;;;;;;51.67;39.67;;;;;2.31;73.13;99580.34;5033193;28;45544;-73
2021/12/01 01:25:55;;;;;;;;;45.00;39.00;;;;;2.32;73.02;99578.59;5032948;28;45500;-73
2021/12/01 01:28:21;;;;;;;;;48.00;38.67;;;;;2.33;73.10;99580.34;5033495;28;45409;-73
2021/12/01 01:30:46;;;;;;;;;36.33;34.33;;;;;2.31;72.93;99567.31;5033723;28;45369;-73
2021/12/01 01:33:11;;;;;;;;;57.67;39.67;;;;;2.30;73.15;99565.59;5049017;28;45420;-73
2021/12/01 01:35:37;;;;;;;;;28.67;26.67;;;;;2.30;73.26;99565.59;5034082;28;45438;-73
2021/12/01 01:38:02;;;;;;;;;32.67;29.67;;;;;2.30;73.37;99562.13;5032933;28;45433;-73
2021/12/01 01:40:28;;;;;;;;;38.67;35.67;;;;;2.28;73.77;99562.13;5036916;28;45345;-73
2021/12/01 01:42:53;;;;;;;;;41.00;34.00;;;;;2.28;73.62;99563.84;5037175;28;45638;-73
2021/12/01 01:45:19;;;;;;;;;33.33;31.33;;;;;2.26;73.39;99560.38;5037163;28;45413;-73
2021/12/01 01:48:00;;;;;;;;;36.00;33.67;;;;;2.25;73.82;99558.63;5035694;28;45548;-73
2021/12/01 01:50:37;;;;;;;;;39.67;33.67;;;;;2.24;74.07;99552.56;5035875;28;45491;-73
2021/12/01 01:53:09;;;;;;;;;33.00;32.67;;;;;2.21;74.78;99549.97;5036212;28;45549;-73
2021/12/01 01:55:38;;;;;;;;;38.00;34.00;;;;;2.21;75.00;99538.69;5037192;28;45562;-73
2021/12/01 01:58:03;;;;;;;;;35.67;27.00;;;;;2.22;74.94;99535.22;5036995;28;45524;-73
2021/12/01 02:00:30;;;;;;;;;36.33;34.00;;;;;2.22;74.88;99524.81;5036127;28;45356;-73
2021/12/01 02:02:58;;;;;;;;;36.67;31.00;;;;;2.22;74.94;99520.47;5037124;28;45444;-73
2021/12/01 02:05:23;;;;;;;;;34.33;31.33;;;;;2.21;75.22;99523.94;5036954;28;45504;-73
2021/12/01 02:07:50;;;;;;;;;32.67;27.33;;;;;2.21;75.54;99510.94;5036343;28;45503;-73
2021/12/01 02:10:16;;;;;;;;;42.00;37.00;;;;;2.21;75.34;99515.28;5036833;28;45394;-73
2021/12/01 02:12:42;;;;;;;;;34.67;30.33;;;;;2.21;75.28;99517.88;5036762;28;45512;-73
2021/12/01 02:15:08;;;;;;;;;25.33;25.33;;;;;2.22;75.56;99514.41;5036707;28;45358;-73
2021/12/01 02:17:35;;;;;;;;;25.33;25.33;;;;;2.20;75.65;99508.34;5035063;28;46950;-73
2021/12/01 02:20:00;;;;;;;;;32.50;32.00;;;;;2.18;75.60;99503.13;5036566;28;45479;-73
2021/12/01 02:22:26;;;;;;;;;35.00;29.00;;;;;2.19;75.46;99506.59;5036997;28;45431;-73
2021/12/01 02:24:52;;;;;;;;;39.00;33.33;;;;;2.20;75.40;99506.63;5036312;28;45378;-73
2021/12/01 02:27:17;;;;;;;;;31.00;27.33;;;;;2.21;74.88;99502.28;5036749;28;45405;-73
2021/12/01 02:29:43;;;;;;;;;29.67;28.67;;;;;2.20;75.42;99498.81;5051675;28;45500;-73
2021/12/01 02:32:08;;;;;;;;;33.67;27.33;;;;;2.21;75.58;99500.53;5035644;28;46214;-73
2021/12/01 02:34:35;;;;;;;;;33.67;30.67;;;;;2.23;75.41;99496.22;5036458;28;45448;-74
2021/12/01 02:37:01;;;;;;;;;35.33;29.33;;;;;2.22;75.62;99481.47;5033842;28;46619;-73
2021/12/01 02:39:28;;;;;;;;;28.33;26.33;;;;;2.21;75.74;99474.53;5034471;28;45453;-73
2021/12/01 02:41:58;;;;;;;;;34.33;30.00;;;;;2.21;75.79;99468.47;5036834;28;45352;-73
2021/12/01 02:44:24;;;;;;;;;33.33;30.67;;;;;2.19;75.99;99457.19;5035971;28;45541;-73
2021/12/01 02:46:49;;;;;;;;;28.67;27.67;;;;;2.17;75.62;99466.75;5034778;28;48247;-73
2021/12/01 02:49:20;;;;;;;;;31.00;31.00;;;;;2.14;75.73;99465.03;5034755;28;45423;-73
2021/12/01 02:51:48;;;;;;;;;25.67;25.00;;;;;2.10;75.63;99458.94;5036482;28;45452;-73
2021/12/01 02:54:13;;;;;;;;;28.67;25.33;;;;;2.09;75.72;99451.16;5035666;28;45518;-73
2021/12/01 02:56:44;;;;;;;;;34.67;31.33;;;;;2.06;75.57;99449.41;5036037;28;45991;-73
2021/12/01 02:59:10;;;;;;;;;30.67;27.00;;;;;2.04;75.71;99445.94;5035888;28;45539;-73
2021/12/01 03:01:36;;;;;;;;;31.67;30.67;;;;;2.01;75.87;99445.94;5036472;28;45578;-73
2021/12/01 03:04:01;;;;;;;;;36.00;34.00;;;;;2.00;76.05;99451.16;5035795;28;45370;-73
2021/12/01 03:06:28;;;;;;;;;36.67;27.33;;;;;1.99;75.76;99452.03;5036079;28;45460;-73
2021/12/01 03:08:55;;;;;;;;;36.00;36.00;;;;;1.96;76.01;99447.69;5035677;28;45559;-73
2021/12/01 03:11:20;;;;;;;;;32.33;30.00;;;;;1.94;76.50;99446.84;5034787;28;45457;-73
2021/12/01 03:13:45;;;;;;;;;37.33;34.00;;;;;1.92;76.27;99439.91;5035720;28;45451;-73
2021/12/01 03:16:11;;;;;;;;;36.67;28.00;;;;;1.90;75.93;99439.88;5035687;28;46607;-74
2021/12/01 03:18:37;;;;;;;;;38.33;33.33;;;;;1.90;76.43;99429.50;5029317;28;45402;-74
2021/12/01 03:21:03;;;;;;;;;30.00;26.67;;;;;1.90;76.05;99434.69;5034586;28;45468;-74
2021/12/01 03:23:29;;;;;;;;;33.00;29.33;;;;;1.89;76.55;99426.91;5034807;28;45429;-74
2021/12/01 03:25:54;;;;;;;;;32.00;28.67;;;;;1.90;75.93;99426.03;5035760;28;46032;-74
2021/12/01 03:28:20;;;;;;;;;37.00;30.33;;;;;1.89;76.19;99422.56;5035764;28;45511;-74
2021/12/01 03:30:47;;;;;;;;;35.00;30.33;;;;;1.89;76.28;99406.97;5035514;28;45441;-72
2021/12/01 03:33:16;;;;;;;;;33.33;29.33;;;;;1.88;76.55;99402.63;5035017;28;45431;-72
2021/12/01 03:35:44;;;;;;;;;31.00;25.33;;;;;1.86;76.29;99403.50;5034841;28;46777;-75
2021/12/01 03:38:10;;;;;;;;;37.67;34.33;;;;;1.84;76.45;99402.66;5049399;28;45765;-74
2021/12/01 03:40:35;;;;;;;;;30.67;28.33;;;;;1.82;76.54;99405.25;5035627;28;45421;-74
2021/12/01 03:43:02;;;;;;;;;35.00;26.00;;;;;1.80;76.53;99386.19;5034172;28;45529;-74
2021/12/01 03:45:28;;;;;;;;;26.00;26.00;;;;;1.81;76.76;99384.47;5035584;28;46353;-74
2021/12/01 03:47:54;;;;;;;;;32.00;31.67;;;;;1.81;76.83;99387.94;5025733;28;45592;-73
2021/12/01 03:50:19;;;;;;;;;28.67;27.00;;;;;1.80;76.80;99386.19;5035584;28;45494;-74
2021/12/01 03:52:45;;;;;;;;;34.67;31.33;;;;;1.81;76.90;99382.72;5034714;28;45539;-74
2021/12/01 03:55:10;;;;;;;;;29.00;26.33;;;;;1.81;77.13;99377.53;5050762;28;46787;-74
2021/12/01 03:57:36;;;;;;;;;29.00;23.33;;;;;1.81;77.19;99387.06;5035496;28;45384;-73
2021/12/01 04:00:08;;;;;;;;;30.00;23.67;;;;;1.79;76.95;99376.66;5035334;28;45584;-72
2021/12/01 04:02:34;;;;;;;;;33.67;25.00;;;;;1.79;77.05;99374.06;5034052;28;45544;-72
2021/12/01 04:04:59;;;;;;;;;29.00;25.67;;;;;1.80;77.02;99377.53;5034932;28;45995;-73
2021/12/01 04:07:24;;;;;;;;;26.67;24.00;;;;;1.79;77.06;99363.66;5049954;28;45463;-72
2021/12/01 04:09:51;;;;;;;;;31.00;27.00;;;;;1.76;76.97;99355.88;5034820;28;45394;-73
2021/12/01 04:12:17;;;;;;;;;24.33;20.33;;;;;1.74;76.74;99355.00;5035102;28;45422;-73
2021/12/01 04:14:42;;;;;;;;;36.33;28.33;;;;;1.73;77.33;99351.53;5034732;28;45470;-73
2021/12/01 04:17:08;;;;;;;;;36.67;28.33;;;;;1.71;77.33;99353.25;5034594;28;45410;-73
2021/12/01 04:19:33;;;;;;;;;32.33;27.67;;;;;1.71;76.69;99342.00;5050438;28;45372;-73
2021/12/01 04:21:59;;;;;;;;;31.00;29.00;;;;;1.71;77.20;99339.41;5034877;28;45385;-73
2021/12/01 04:24:24;;;;;;;;;33.67;32.33;;;;;1.69;77.19;99323.81;5034424;28;45725;-72
2021/12/01 04:26:50;;;;;;;;;36.00;30.33;;;;;1.67;77.06;99316.91;5035168;28;45426;-73
2021/12/01 04:29:15;;;;;;;;;36.67;30.00;;;;;1.65;77.13;99327.31;5049850;28;45545;-74
2021/12/01 04:31:41;;;;;;;;;27.67;27.67;;;;;1.63;77.15;99323.84;5050267;28;45484;-73
2021/12/01 04:34:07;;;;;;;;;26.00;25.00;;;;;1.63;77.20;99325.56;5028155;28;45523;-73
2021/12/01 04:36:36;;;;;;;;;26.33;25.33;;;;;1.61;77.19;99322.09;5030262;28;45420;-74
2021/12/01 04:39:05;;;;;;;;;35.00;31.67;;;;;1.60;77.77;99316.03;5033532;28;45381;-73
2021/12/01 04:41:37;;;;;;;;;31.33;27.33;;;;;1.59;77.60;99305.66;5032871;28;45462;-73
2021/12/01 04:44:08;;;;;;;;;28.33;25.00;;;;;1.58;77.53;99298.72;5034083;28;46040;-73
2021/12/01 04:46:40;;;;;;;;;27.00;23.67;;;;;1.55;77.74;99302.19;5034582;28;45458;-73
2021/12/01 04:49:06;;;;;;;;;32.67;23.00;;;;;1.54;77.72;99294.38;5034473;28;45522;-73
2021/12/01 04:51:32;;;;;;;;;26.33;23.33;;;;;1.53;77.59;99293.53;5028819;28;45537;-73
2021/12/01 04:53:59;;;;;;;;;27.00;26.67;;;;;1.52;77.40;99286.59;5034320;28;46158;-73
2021/12/01 04:56:24;;;;;;;;;27.33;25.67;;;;;1.52;77.77;99275.34;5034509;28;45438;-73
2021/12/01 04:58:50;;;;;;;;;31.00;25.33;;;;;1.51;77.82;99265.84;5034118;28;45547;-73
2021/12/01 05:01:17;;;;;;;;;30.67;30.00;;;;;1.52;77.78;99273.59;5032912;28;45893;-73
2021/12/01 05:03:42;;;;;;;;;24.00;20.00;;;;;1.51;77.98;99276.22;5032416;28;46281;-73
2021/12/01 05:06:08;;;;;;;;;25.33;20.33;;;;;1.51;78.10;99271.88;5034339;28;45326;-73
2021/12/01 05:08:33;;;;;;;;;29.33;26.00;;;;;1.51;78.03;99268.44;5033645;28;45568;-73
2021/12/01 05:10:59;;;;;;;;;31.33;27.67;;;;;1.50;78.02;99267.56;5031876;28;45485;-73
2021/12/01 05:13:24;;;;;;;;;24.33;24.00;;;;;1.50;77.77;99269.31;5033263;28;46550;-73
2021/12/01 05:15:51;;;;;;;;;23.67;23.67;;;;;1.50;77.76;99271.91;5033926;28;45344;-73
2021/12/01 05:18:17;;;;;;;;;27.00;27.00;;;;;1.47;78.29;99259.78;5033142;28;45428;-73
2021/12/01 05:20:43;;;;;;;;;20.33;19.00;;;;;1.46;78.09;99263.25;5032752;28;45416;-74
2021/12/01 05:23:08;;;;;;;;;23.67;20.67;;;;;1.47;78.04;99264.09;5031882;28;45589;-74
2021/12/01 05:25:34;;;;;;;;;23.00;22.33;;;;;1.46;78.08;99258.03;5033416;28;45418;-73
2021/12/01 05:27:59;;;;;;;;;25.00;20.00;;;;;1.46;78.25;99258.03;5049322;28;45692;-76
2021/12/01 05:30:25;;;;;;;;;23.33;20.33;;;;;1.47;78.76;99257.19;5033388;28;45527;-76
2021/12/01 05:32:50;;;;;;;;;19.67;17.67;;;;;1.48;78.71;99260.66;5033427;28;45558;-75
2021/12/01 05:35:16;;;;;;;;;23.00;20.67;;;;;1.46;79.53;99264.97;5033525;28;45423;-76
2021/12/01 05:37:41;;;;;;;;;23.67;21.67;;;;;1.45;79.59;99271.91;5033172;28;45565;-78
2021/12/01 05:40:07;;;;;;;;;19.00;17.33;;;;;1.46;78.77;99271.03;5033202;28;45533;-78
2021/12/01 05:42:33;;;;;;;;;20.00;14.67;;;;;1.47;77.85;99277.09;5030618;28;45459;-78
2021/12/01 05:44:58;;;;;;;;;13.33;13.00;;;;;1.45;77.13;99273.63;5032862;28;45338;-76
2021/12/01 05:47:23;;;;;;;;;17.67;16.33;;;;;1.45;77.02;99260.66;5048817;28;45456;-76
2021/12/01 05:49:49;;;;;;;;;22.67;15.00;;;;;1.46;76.98;99267.56;5048569;28;45899;-76
2021/12/01 05:52:16;;;;;;;;;22.33;13.67;;;;;1.47;76.69;99264.97;5033147;28;46233;-76
2021/12/01 05:54:43;;;;;;;;;14.67;13.00;;;;;1.48;76.40;99269.31;5032440;28;45443;-76
2021/12/01 05:57:09;;;;;;;;;14.33;14.33;;;;;1.50;76.33;99272.78;5033339;28;45605;-76
2021/12/01 05:59:35;;;;;;;;;20.33;18.67;;;;;1.51;76.33;99261.47;5033111;28;45483;-76
2021/12/01 06:02:00;;;;;;;;;16.00;12.67;;;;;1.54;76.41;99266.69;5031878;28;47550;-76
2021/12/01 06:04:25;;;;;;;;;14.67;14.67;;;;;1.54;76.18;99261.47;5032029;28;45393;-76
2021/12/01 06:06:52;;;;;;;;;14.67;14.00;;;;;1.56;76.53;99256.28;5047811;28;45416;-75
2021/12/01 06:09:17;;;;;;;;;25.33;18.33;;;;;1.57;76.78;99263.22;5032576;28;45443;-76
2021/12/01 06:11:45;;;;;;;;;26.33;22.67;;;;;1.58;76.96;99268.41;5031020;28;45974;-77
2021/12/01 06:14:13;;;;;;;;;26.00;26.00;;;;;1.56;77.44;99264.06;5024714;28;45535;-76
2021/12/01 06:16:38;;;;;;;;;23.00;21.00;;;;;1.53;77.52;99264.06;5032630;28;45533;-76
2021/12/01 06:19:03;;;;;;;;;36.00;31.33;;;;;1.50;77.64;99252.00;5031831;28;45395;-76
2021/12/01 06:21:29;;;;;;;;;31.33;27.00;;;;;1.47;77.96;99248.53;5032092;28;45736;-76
2021/12/01 06:23:54;;;;;;;;;29.67;25.67;;;;;1.43;78.34;99246.78;5031436;28;45514;-77
2021/12/01 06:26:20;;;;;;;;;33.33;26.33;;;;;1.41;78.70;99257.19;5035138;28;45532;-77
2021/12/01 06:28:45;;;;;;;;;41.00;30.00;;;;;1.39;78.67;99251.13;5035410;28;45434;-76
2021/12/01 06:31:10;;;;;;;;;26.33;22.33;;;;;1.38;78.63;99234.66;5034647;28;46131;-78
2021/12/01 06:33:36;;;;;;;;;24.00;19.33;;;;;1.38;79.00;99232.06;5035963;28;45389;-75
2021/12/01 06:36:02;;;;;;;;;22.00;21.00;;;;;1.38;78.63;99226.88;5051072;28;45481;-78
2021/12/01 06:38:28;;;;;;;;;31.00;27.00;;;;;1.37;78.90;99227.75;5035099;28;45392;-76
2021/12/01 06:40:53;;;;;;;;;22.67;18.67;;;;;1.38;78.72;99224.28;5034146;28;45880;-76
2021/12/01 06:43:19;;;;;;;;;40.67;29.00;;;;;1.38;78.93;99226.88;5029388;28;45721;-78
2021/12/01 06:45:45;;;;;;;;;39.67;33.00;;;;;1.39;79.21;99230.34;5043130;28;45422;-76
2021/12/01 06:48:10;;;;;;;;;13.67;9.67;;;;;1.39;79.10;99236.41;5034131;28;45571;-77
2021/12/01 06:50:36;;;;;;;;;38.67;33.33;;;;;1.39;78.89;99241.59;5034337;28;46095;-76
2021/12/01 06:53:02;;;;;;;;;30.33;30.33;;;;;1.40;79.06;99237.25;5034370;28;45369;-77
2021/12/01 06:55:28;;;;;;;;;33.00;32.33;;;;;1.40;79.17;99235.53;5035244;28;45555;-78
2021/12/01 06:57:53;;;;;;;;;37.33;32.33;;;;;1.42;79.03;99232.06;5034532;28;45580;-77
2021/12/01 07:00:20;;;;;;;;;35.67;29.67;;;;;1.42;79.09;99229.47;5034814;28;45663;-76
2021/12/01 07:02:46;;;;;;;;;44.67;39.67;;;;;1.41;79.22;99213.03;5034150;28;45360;-78
2021/12/01 07:05:11;;;;;;;;;34.00;30.33;;;;;1.39;79.17;99210.44;5034445;28;45452;-77
2021/12/01 07:07:38;;;;;;;;;36.33;35.67;;;;;1.40;79.26;99208.69;5034394;28;45454;-77
2021/12/01 07:10:09;;;;;;;;;40.33;35.00;;;;;1.41;79.12;99210.44;5034388;28;46082;-78
2021/12/01 07:12:35;;;;;;;;;38.33;30.33;;;;;1.39;79.30;99213.03;5027776;28;45473;-78
2021/12/01 07:15:02;;;;;;;;;30.00;28.33;;;;;1.37;79.36;99209.56;5025912;28;45470;-76
2021/12/01 07:17:28;;;;;;;;;34.00;28.00;;;;;1.36;79.29;99209.56;5032811;28;45814;-77
2021/12/01 07:19:54;;;;;;;;;30.67;30.33;;;;;1.34;79.16;99209.56;5034529;28;45495;-77
2021/12/01 07:22:20;;;;;;;;;36.33;28.67;;;;;1.34;79.11;99216.50;5034214;28;45312;-77
2021/12/01 07:24:45;;;;;;;;;35.33;32.67;;;;;1.32;78.90;99210.47;5033876;28;45438;-77
2021/12/01 07:27:11;;;;;;;;;41.67;33.00;;;;;1.32;79.42;99215.66;5033706;28;45548;-79
2021/12/01 07:29:37;;;;;;;;;10.67;5.67;;;;;1.32;79.19;99220.84;5032259;28;48050;-76
2021/12/01 07:32:04;;;;;;;;;45.00;41.00;;;;;1.29;79.38;99215.66;5034211;28;45503;-76
2021/12/01 07:34:29;;;;;;;;;45.00;34.33;;;;;1.27;79.36;99207.84;5033673;28;45602;-76
2021/12/01 07:36:55;;;;;;;;;37.67;33.33;;;;;1.27;79.49;99200.06;5034468;28;45511;-76
2021/12/01 07:39:21;;;;;;;;;40.33;32.33;;;;;1.25;79.12;99201.81;5032969;28;46323;-76
2021/12/01 07:41:47;;;;;;;;;39.00;35.00;;;;;1.26;79.37;99202.66;5030907;28;45910;-76
2021/12/01 07:44:13;;;;;;;;;40.67;34.33;;;;;1.27;79.39;99200.06;5033907;28;45395;-76
2021/12/01 07:46:38;;;;;;;;;36.00;32.33;;;;;1.31;79.37;99201.81;5033144;28;45545;-76
2021/12/01 07:49:04;;;;;;;;;38.33;32.33;;;;;1.36;79.06;99189.66;5023822;28;47000;-76
2021/12/01 07:51:30;;;;;;;;;43.00;39.33;;;;;1.40;79.06;99191.38;5066504;28;45452;-77
2021/12/01 07:53:56;;;;;;;;;31.33;29.33;;;;;1.48;79.13;99182.72;5034192;28;45488;-76
2021/12/01 07:56:22;;;;;;;;;36.67;32.33;;;;;1.54;79.05;99177.47;5034449;28;45559;-76
2021/12/01 07:58:47;;;;;;;;;43.33;39.00;;;;;1.59;79.04;99168.81;5033586;28;45452;-76
2021/12/01 08:01:13;;;;;;;;;39.67;35.00;;;;;1.64;78.79;99164.47;5033258;28;45445;-76
2021/12/01 08:03:38;;;;;;;;;40.67;32.33;;;;;1.70;78.79;99156.63;5034213;28;45449;-76
2021/12/01 08:06:03;;;;;;;;;50.00;41.67;;;;;1.77;78.87;99146.22;5033917;28;45456;-76
2021/12/01 08:08:29;;;;;;;;;35.33;32.00;;;;;1.83;78.62;99149.66;5029110;28;47401;-76
2021/12/01 08:10:55;;;;;;;;;38.33;38.00;;;;;1.88;78.50;99140.09;5034617;28;45479;-76
2021/12/01 08:13:21;;;;;;;;;40.67;36.00;;;;;1.95;78.29;99152.19;5029076;28;45612;-76
2021/12/01 08:15:47;;;;;;;;;37.67;37.00;;;;;2.02;78.25;99150.41;5033998;28;45381;-76
2021/12/01 08:18:14;;;;;;;;;37.33;34.67;;;;;2.09;77.66;99137.38;5033702;28;46437;-76
2021/12/01 08:20:40;;;;;;;;;36.33;32.67;;;;;2.17;77.58;99131.28;5035563;28;45398;-76
2021/12/01 08:23:05;;;;;;;;;36.67;36.00;;;;;2.25;77.60;99130.34;5033472;28;45346;-76
2021/12/01 08:25:31;;;;;;;;;30.00;25.67;;;;;2.35;77.39;99124.19;5033638;28;45349;-76
2021/12/01 08:27:56;;;;;;;;;41.33;33.00;;;;;2.45;77.22;99115.47;5032550;28;46425;-76
2021/12/01 08:30:22;;;;;;;;;38.67;35.00;;;;;2.56;76.81;99107.56;5031445;28;46064;-76
2021/12/01 08:32:47;;;;;;;;;35.00;29.67;;;;;2.68;76.26;99109.22;5033767;28;45475;-76
2021/12/01 08:35:14;;;;;;;;;32.33;26.67;;;;;2.79;76.06;99096.97;5032993;28;45574;-76
2021/12/01 08:37:39;;;;;;;;;39.67;34.00;;;;;2.89;75.76;99093.38;5046023;28;46846;-76
2021/12/01 08:40:06;;;;;;;;;29.67;27.67;;;;;2.99;75.34;99088.97;5032960;28;45694;-76
2021/12/01 08:42:32;;;;;;;;;40.33;38.00;;;;;3.10;74.97;99102.72;5034095;28;45349;-76
2021/12/01 08:44:57;;;;;;;;;39.33;37.00;;;;;3.18;75.22;99094.84;5033339;28;45468;-76
2021/12/01 08:47:25;;;;;;;;;38.00;32.33;;;;;3.24;74.83;99090.41;5048467;28;46888;-76
2021/12/01 08:49:51;;;;;;;;;38.50;34.00;;;;;3.28;74.65;99080.81;5033228;28;45480;-76
2021/12/01 08:52:17;;;;;;;;;38.67;33.00;;;;;3.35;74.65;99080.72;5032899;28;45565;-75
2021/12/01 08:54:43;;;;;;;;;37.33;32.00;;;;;3.42;73.98;99087.59;5033302;28;45538;-75
2021/12/01 08:57:08;;;;;;;;;42.33;37.00;;;;;3.56;73.87;99096.97;5031607;28;47205;-76
2021/12/01 08:59:36;;;;;;;;;33.67;30.67;;;;;3.67;74.13;99077.72;5032702;28;45443;-76
2021/12/01 09:02:02;;;;;;;;;31.67;29.33;;;;;3.83;73.75;99067.97;5032677;28;45390;-76
2021/12/01 09:04:28;;;;;;;;;36.00;31.67;;;;;3.94;73.00;99066.03;5047588;28;45796;-75
2021/12/01 09:06:54;;;;;;;;;32.00;29.67;;;;;4.09;72.63;99068.44;5033283;28;45415;-75
2021/12/01 09:09:20;;;;;;;;;31.00;30.00;;;;;4.25;72.30;99062.97;5032677;28;45385;-75
2021/12/01 09:11:48;;;;;;;;;30.67;27.00;;;;;4.39;72.17;99053.16;5031908;28;45336;-76
2021/12/01 09:14:13;;;;;;;;;40.33;29.67;;;;;4.50;71.31;99044.28;5031299;28;45515;-75
2021/12/01 09:16:41;;;;;;;;;37.67;32.33;;;;;4.62;71.29;99047.56;5032388;28;46536;-75
2021/12/01 09:19:06;;;;;;;;;42.67;37.00;;;;;4.68;70.77;99035.28;5031186;28;45575;-76
2021/12/01 09:21:32;;;;;;;;;33.67;32.67;;;;;4.73;71.11;99035.19;5033101;28;46125;-75
2021/12/01 09:23:57;;;;;;;;;35.00;30.33;;;;;4.78;70.53;99036.81;5029059;28;45594;-76
2021/12/01 09:26:23;;;;;;;;;38.67;32.67;;;;;4.80;70.59;99032.44;5032839;28;46261;-76
2021/12/01 09:28:48;;;;;;;;;40.00;35.67;;;;;4.83;70.37;99015.84;5032245;28;45473;-76
2021/12/01 09:31:14;;;;;;;;;35.67;32.00;;;;;4.85;70.60;99011.47;5032720;28;45376;-76
2021/12/01 09:33:39;;;;;;;;;40.33;36.00;;;;;4.87;70.79;99020.97;5032664;28;45670;-76
2021/12/01 09:36:05;;;;;;;;;33.33;33.33;;;;;4.90;70.71;99007.88;5029895;28;45998;-76
2021/12/01 09:38:31;;;;;;;;;32.33;28.33;;;;;4.96;70.50;99006.03;5032305;28;45452;-76
2021/12/01 09:41:00;;;;;;;;;35.00;31.33;;;;;4.99;70.39;98999.00;5044778;28;45368;-76
2021/12/01 09:43:28;;;;;;;;;40.00;36.00;;;;;5.05;70.44;98996.25;5018715;28;45656;-76
2021/12/01 09:45:55;;;;;;;;;37.67;31.67;;;;;5.13;70.14;98985.66;5033125;28;45327;-76
2021/12/01 09:48:21;;;;;;;;;38.67;35.00;;;;;5.24;70.15;98978.44;5032513;28;45472;-77
2021/12/01 09:50:47;;;;;;;;;26.00;24.67;;;;;5.38;69.75;98965.06;5033014;28;45408;-76
2021/12/01 09:53:13;;;;;;;;;32.33;31.00;;;;;5.51;68.90;98951.72;5031921;28;45719;-76
2021/12/01 09:55:40;;;;;;;;;30.00;27.00;;;;;5.69;68.84;98960.03;5033003;28;46180;-76
2021/12/01 09:58:16;;;;;;;;;39.00;28.33;;;;;5.87;68.59;98941.28;5032210;28;45373;-76
2021/12/01 10:00:45;;;;;;;;;32.00;30.00;;;;;6.03;67.82;98933.97;5034556;28;45553;-76
2021/12/01 10:03:11;;;;;;;;;29.00;24.00;;;;;6.16;67.53;98910.06;5036049;28;45385;-77
2021/12/01 10:06:04;;;;;;;;;35.67;35.33;;;;;6.35;67.43;98910.44;5035108;28;45405;-76
2021/12/01 10:08:31;;;;;;;;;32.00;28.33;;;;;6.44;68.39;98914.56;5030168;28;45807;-77
2021/12/01 10:10:57;;;;;;;;;40.33;34.67;;;;;6.43;67.52;98907.59;5035730;28;45477;-76
2021/12/01 10:13:29;;;;;;;;;33.00;32.00;;;;;6.45;66.76;98893.59;5035764;28;45554;-77
2021/12/01 10:15:57;;;;;;;;;41.00;34.67;;;;;6.52;67.75;98891.66;5035997;28;46319;-76
2021/12/01 10:18:23;;;;;;;;;38.00;36.33;;;;;6.55;66.15;98889.78;5050716;28;45457;-76
2021/12/01 10:21:06;;;;;;;;;33.33;29.33;;;;;6.62;66.08;98870.41;5035896;28;45552;-76
2021/12/01 10:23:34;;;;;;;;;28.00;27.00;;;;;6.70;65.86;98859.72;5049991;28;45572;-76
2021/12/01 10:26:07;;;;;;;;;36.00;33.33;;;;;6.76;65.61;98856.06;5035861;28;45937;-76
2021/12/01 10:28:37;;;;;;;;;42.00;34.67;;;;;6.83;65.39;98862.84;5035677;28;45430;-76
2021/12/01 10:31:03;;;;;;;;;28.67;25.67;;;;;6.87;65.37;98865.31;5030305;28;45397;-77
2021/12/01 10:33:29;;;;;;;;;33.67;31.33;;;;;6.91;65.35;98839.88;5035361;28;45600;-77
2021/12/01 10:35:58;;;;;;;;;32.33;30.33;;;;;6.95;64.91;98834.50;5035885;28;45415;-77
2021/12/01 10:38:32;;;;;;;;;50.33;39.00;;;;;7.00;65.25;98822.13;5034411;28;45413;-77
2021/12/01 10:41:10;;;;;;;;;29.33;24.00;;;;;7.05;64.90;98823.72;5035508;28;45479;-77
2021/12/01 10:43:39;;;;;;;;;30.67;28.67;;;;;7.07;64.77;98817.53;5035717;28;45394;-77
2021/12/01 10:46:07;;;;;;;;;31.00;29.00;;;;;7.07;64.47;98807.06;5034856;28;46369;-77
2021/12/01 10:48:34;;;;;;;;;32.00;29.00;;;;;7.07;64.28;98807.06;5034496;28;45372;-77
2021/12/01 10:50:59;;;;;;;;;36.33;32.33;;;;;7.07;64.26;98796.56;5035077;28;45459;-77
2021/12/01 10:53:26;;;;;;;;;35.33;33.33;;;;;7.06;64.90;98791.38;5034749;28;45484;-77
2021/12/01 10:55:58;;;;;;;;;35.33;33.00;;;;;7.04;65.13;98780.94;5035504;28;46192;-77
2021/12/01 10:58:32;;;;;;;;;33.33;31.67;;;;;7.02;65.33;98784.53;5034805;28;45440;-77
2021/12/01 11:01:00;;;;;;;;;37.67;34.00;;;;;7.03;65.37;98779.25;5032199;28;45517;-77
2021/12/01 11:03:29;;;;;;;;;39.67;34.67;;;;;7.08;65.57;98766.84;5035067;28;45498;-77
2021/12/01 11:06:10;;;;;;;;;54.67;42.67;;;;;7.15;65.40;98755.25;5034708;28;46594;-76
2021/12/01 11:08:40;;;;;;;;;35.67;33.00;;;;;7.21;65.31;98748.94;5034170;28;45385;-77
2021/12/01 11:11:11;;;;;;;;;40.67;37.00;;;;;7.24;65.63;98741.84;5034874;28;45396;-77
2021/12/01 11:13:39;;;;;;;;;46.67;39.00;;;;;7.28;65.53;98730.34;5034590;28;45448;-76
2021/12/01 11:16:09;;;;;;;;;38.33;36.33;;;;;7.30;65.30;98723.28;5049198;28;47262;-77
2021/12/01 11:18:36;;;;;;;;;40.67;33.00;;;;;7.33;65.31;98719.72;5033917;28;45393;-76
2021/12/01 11:21:08;;;;;;;;;43.33;37.33;;;;;7.33;65.28;98724.97;5050747;28;45371;-76
2021/12/01 11:23:35;;;;;;;;;41.33;35.33;;;;;7.33;65.26;98699.59;5034766;28;45488;-76
2021/12/01 11:26:06;;;;;;;;;43.67;36.67;;;;;7.38;65.11;98695.94;5034394;28;46211;-76
2021/12/01 11:28:35;;;;;;;;;45.00;37.00;;;;;7.41;65.62;98688.84;5034158;28;45532;-77